KMSS/MSS METAR and TAF weather

Enter ICAO airport designator
Station Type Date Time Source
KMSS METAR 2020/04/04 19:53 UTC NOAA

KMSS 041953Z AUTO 06008KT 10SM OVC050 13/03 A3002 RMK AO2 SLP168 T01280028


Station Type Date Time Source
KMSS Decoded METAR 2020/04/04 19:53 UTC NOAA

MASSENA INTERNATIONAL -RICHARDS FLD, NY, United States (KMSS) 44-56N 074-51W 66M
Apr 04, 2020 - 03:53 PM EDT / 2020.04.04 1953 UTC
Wind: from the ENE (060 degrees) at 9 MPH (8 KT):0
Visibility: 10 mile(s):0
Sky conditions: overcast
Temperature: 55.0 F (12.8 C)
Dew Point: 37.0 F (2.8 C)
Relative Humidity: 50%
Pressure (altimeter): 30.02 in. Hg (1016 hPa)
ob: KMSS 041953Z AUTO 06008KT 10SM OVC050 13/03 A3002 RMK AO2 SLP168 T01280028
cycle: 20

Station Type Date Time Source
KMSS TAF 2020/04/04 18:40 UTC NOAA

TAF KMSS 041738Z 0418/0518 03007KT P6SM BKN100
FM050500 14003KT P6SM BKN040
FM051000 00000KT P6SM BKN025
FM051500 24005KT P6SM VCSH OVC025

Example: see airport list